sensor_id;sensor_type;location;lat;lon;timestamp;temperature;humidity
80250;DHT22;69561;37.974;23.708;2023-04-26T00:00:22;24.80;37.40
80250;DHT22;69561;37.974;23.708;2023-04-26T00:02:47;24.80;37.50
80250;DHT22;69561;37.974;23.708;2023-04-26T00:05:14;24.80;37.50
80250;DHT22;69561;37.974;23.708;2023-04-26T00:07:41;24.80;37.50
80250;DHT22;69561;37.974;23.708;2023-04-26T00:10:09;24.80;37.60
80250;DHT22;69561;37.974;23.708;2023-04-26T00:12:35;24.80;37.60
80250;DHT22;69561;37.974;23.708;2023-04-26T00:15:02;24.80;37.60
80250;DHT22;69561;37.974;23.708;2023-04-26T00:17:28;24.80;37.70
80250;DHT22;69561;37.974;23.708;2023-04-26T00:19:54;24.80;37.80
80250;DHT22;69561;37.974;23.708;2023-04-26T00:22:22;24.80;37.90
80250;DHT22;69561;37.974;23.708;2023-04-26T00:24:47;24.70;37.90
80250;DHT22;69561;37.974;23.708;2023-04-26T00:27:13;24.80;38.00
80250;DHT22;69561;37.974;23.708;2023-04-26T00:29:39;24.70;38.00
80250;DHT22;69561;37.974;23.708;2023-04-26T00:32:05;24.80;38.20
80250;DHT22;69561;37.974;23.708;2023-04-26T00:34:35;24.80;38.20
80250;DHT22;69561;37.974;23.708;2023-04-26T00:37:01;24.80;38.30
80250;DHT22;69561;37.974;23.708;2023-04-26T00:39:27;24.80;38.30
80250;DHT22;69561;37.974;23.708;2023-04-26T00:41:53;24.80;38.40
80250;DHT22;69561;37.974;23.708;2023-04-26T00:44:19;24.70;38.30
80250;DHT22;69561;37.974;23.708;2023-04-26T00:46:45;24.70;38.30
80250;DHT22;69561;37.974;23.708;2023-04-26T00:49:16;24.80;38.40
80250;DHT22;69561;37.974;23.708;2023-04-26T00:51:44;24.80;38.40
80250;DHT22;69561;37.974;23.708;2023-04-26T00:54:10;24.80;38.40
80250;DHT22;69561;37.974;23.708;2023-04-26T00:56:38;24.80;38.40
80250;DHT22;69561;37.974;23.708;2023-04-26T00:59:04;24.80;38.50
80250;DHT22;69561;37.974;23.708;2023-04-26T01:01:29;24.80;39.50
80250;DHT22;69561;37.974;23.708;2023-04-26T01:03:55;24.80;38.50
80250;DHT22;69561;37.974;23.708;2023-04-26T01:06:21;24.80;38.60
80250;DHT22;69561;37.974;23.708;2023-04-26T01:08:52;24.80;38.60
80250;DHT22;69561;37.974;23.708;2023-04-26T01:11:21;24.80;38.60
80250;DHT22;69561;37.974;23.708;2023-04-26T01:13:49;24.70;38.60
80250;DHT22;69561;37.974;23.708;2023-04-26T01:16:16;24.70;38.60
80250;DHT22;69561;37.974;23.708;2023-04-26T01:18:50;24.80;38.70
80250;DHT22;69561;37.974;23.708;2023-04-26T01:21:23;24.70;38.80
80250;DHT22;69561;37.974;23.708;2023-04-26T01:23:51;24.70;38.80
80250;DHT22;69561;37.974;23.708;2023-04-26T01:26:18;24.70;38.90
80250;DHT22;69561;37.974;23.708;2023-04-26T01:28:44;24.70;39.00
80250;DHT22;69561;37.974;23.708;2023-04-26T01:31:14;24.70;39.10
80250;DHT22;69561;37.974;23.708;2023-04-26T01:33:39;24.70;39.10
80250;DHT22;69561;37.974;23.708;2023-04-26T01:36:09;24.80;39.10
80250;DHT22;69561;37.974;23.708;2023-04-26T01:38:35;24.70;39.10
80250;DHT22;69561;37.974;23.708;2023-04-26T01:41:01;24.70;39.20
80250;DHT22;69561;37.974;23.708;2023-04-26T01:43:26;24.70;39.20
80250;DHT22;69561;37.974;23.708;2023-04-26T01:45:52;24.70;39.20
80250;DHT22;69561;37.974;23.708;2023-04-26T01:48:18;24.70;39.30
80250;DHT22;69561;37.974;23.708;2023-04-26T01:50:44;24.70;39.40
80250;DHT22;69561;37.974;23.708;2023-04-26T01:53:10;24.70;39.40
80250;DHT22;69561;37.974;23.708;2023-04-26T01:55:35;24.70;39.30
80250;DHT22;69561;37.974;23.708;2023-04-26T01:58:01;24.70;39.40
80250;DHT22;69561;37.974;23.708;2023-04-26T02:00:28;24.70;39.40
80250;DHT22;69561;37.974;23.708;2023-04-26T02:02:54;24.70;40.30
80250;DHT22;69561;37.974;23.708;2023-04-26T02:05:21;24.70;39.30
80250;DHT22;69561;37.974;23.708;2023-04-26T02:07:47;24.70;39.30
80250;DHT22;69561;37.974;23.708;2023-04-26T02:10:12;24.70;39.40
80250;DHT22;69561;37.974;23.708;2023-04-26T02:12:38;24.70;39.40
80250;DHT22;69561;37.974;23.708;2023-04-26T02:15:04;24.70;39.40
80250;DHT22;69561;37.974;23.708;2023-04-26T02:17:31;24.70;39.60
80250;DHT22;69561;37.974;23.708;2023-04-26T02:19:57;24.70;39.70
80250;DHT22;69561;37.974;23.708;2023-04-26T02:22:23;24.70;39.60
80250;DHT22;69561;37.974;23.708;2023-04-26T02:24:52;24.70;39.70
80250;DHT22;69561;37.974;23.708;2023-04-26T02:27:18;24.70;39.60
80250;DHT22;69561;37.974;23.708;2023-04-26T02:29:44;24.70;39.60
80250;DHT22;69561;37.974;23.708;2023-04-26T02:32:12;24.70;39.60
80250;DHT22;69561;37.974;23.708;2023-04-26T02:34:38;24.70;39.60
80250;DHT22;69561;37.974;23.708;2023-04-26T02:37:03;24.70;39.70
80250;DHT22;69561;37.974;23.708;2023-04-26T02:39:29;24.70;39.70
80250;DHT22;69561;37.974;23.708;2023-04-26T02:41:55;24.70;39.70
80250;DHT22;69561;37.974;23.708;2023-04-26T02:44:22;24.70;39.80
80250;DHT22;69561;37.974;23.708;2023-04-26T02:46:47;24.70;39.80
80250;DHT22;69561;37.974;23.708;2023-04-26T02:49:13;24.70;39.80
80250;DHT22;69561;37.974;23.708;2023-04-26T02:51:39;24.70;39.90
80250;DHT22;69561;37.974;23.708;2023-04-26T02:54:05;24.60;40.90
80250;DHT22;69561;37.974;23.708;2023-04-26T02:56:31;24.70;40.00
80250;DHT22;69561;37.974;23.708;2023-04-26T02:58:57;24.70;40.10
80250;DHT22;69561;37.974;23.708;2023-04-26T03:01:23;24.60;40.10
80250;DHT22;69561;37.974;23.708;2023-04-26T03:03:48;24.60;40.20
80250;DHT22;69561;37.974;23.708;2023-04-26T03:06:14;24.60;40.20
80250;DHT22;69561;37.974;23.708;2023-04-26T03:08:40;24.60;40.20
80250;DHT22;69561;37.974;23.708;2023-04-26T03:11:05;24.60;40.20
80250;DHT22;69561;37.974;23.708;2023-04-26T03:13:31;24.60;40.20
80250;DHT22;69561;37.974;23.708;2023-04-26T03:15:57;24.60;40.20
80250;DHT22;69561;37.974;23.708;2023-04-26T03:18:22;24.60;40.10
80250;DHT22;69561;37.974;23.708;2023-04-26T03:20:48;24.60;40.10
80250;DHT22;69561;37.974;23.708;2023-04-26T03:23:14;24.60;40.20
80250;DHT22;69561;37.974;23.708;2023-04-26T03:25:40;24.60;40.10
80250;DHT22;69561;37.974;23.708;2023-04-26T03:28:06;24.60;40.10
80250;DHT22;69561;37.974;23.708;2023-04-26T03:30:31;24.60;40.10
80250;DHT22;69561;37.974;23.708;2023-04-26T03:32:57;24.60;40.00
80250;DHT22;69561;37.974;23.708;2023-04-26T03:35:23;24.60;40.00
80250;DHT22;69561;37.974;23.708;2023-04-26T03:37:48;24.60;40.00
80250;DHT22;69561;37.974;23.708;2023-04-26T03:40:14;24.60;40.00
80250;DHT22;69561;37.974;23.708;2023-04-26T03:42:41;24.60;40.00
80250;DHT22;69561;37.974;23.708;2023-04-26T03:45:07;24.60;40.00
80250;DHT22;69561;37.974;23.708;2023-04-26T03:47:33;24.60;40.00
80250;DHT22;69561;37.974;23.708;2023-04-26T03:49:59;24.60;40.10
80250;DHT22;69561;37.974;23.708;2023-04-26T03:52:25;24.60;40.10
80250;DHT22;69561;37.974;23.708;2023-04-26T03:54:51;24.60;40.00
80250;DHT22;69561;37.974;23.708;2023-04-26T03:57:17;24.60;40.00
80250;DHT22;69561;37.974;23.708;2023-04-26T03:59:42;24.60;39.90
80250;DHT22;69561;37.974;23.708;2023-04-26T04:02:08;24.70;40.00
80250;DHT22;69561;37.974;23.708;2023-04-26T04:04:34;24.70;39.90
80250;DHT22;69561;37.974;23.708;2023-04-26T04:07:00;24.60;39.80
80250;DHT22;69561;37.974;23.708;2023-04-26T04:09:25;24.60;39.90
80250;DHT22;69561;37.974;23.708;2023-04-26T04:11:51;24.60;39.90
80250;DHT22;69561;37.974;23.708;2023-04-26T04:14:17;24.60;39.90
80250;DHT22;69561;37.974;23.708;2023-04-26T04:16:42;24.60;39.90
80250;DHT22;69561;37.974;23.708;2023-04-26T04:19:08;24.70;40.00
80250;DHT22;69561;37.974;23.708;2023-04-26T04:21:34;24.70;40.60
80250;DHT22;69561;37.974;23.708;2023-04-26T04:24:00;24.70;40.80
80250;DHT22;69561;37.974;23.708;2023-04-26T04:26:26;24.70;40.70
80250;DHT22;69561;37.974;23.708;2023-04-26T04:28:54;24.70;40.90
80250;DHT22;69561;37.974;23.708;2023-04-26T04:31:20;24.70;41.20
80250;DHT22;69561;37.974;23.708;2023-04-26T04:33:47;24.70;41.20
80250;DHT22;69561;37.974;23.708;2023-04-26T04:36:13;24.70;41.30
80250;DHT22;69561;37.974;23.708;2023-04-26T04:38:41;24.80;41.30
80250;DHT22;69561;37.974;23.708;2023-04-26T04:41:07;24.80;41.30
80250;DHT22;69561;37.974;23.708;2023-04-26T04:43:33;25.00;41.50
80250;DHT22;69561;37.974;23.708;2023-04-26T04:45:59;25.30;41.00
80250;DHT22;69561;37.974;23.708;2023-04-26T04:48:24;25.60;40.70
80250;DHT22;69561;37.974;23.708;2023-04-26T04:50:50;25.70;40.40
80250;DHT22;69561;37.974;23.708;2023-04-26T04:53:17;25.70;40.10
80250;DHT22;69561;37.974;23.708;2023-04-26T04:55:43;25.70;40.10
80250;DHT22;69561;37.974;23.708;2023-04-26T04:58:08;25.60;40.20
80250;DHT22;69561;37.974;23.708;2023-04-26T05:00:34;25.50;40.20
80250;DHT22;69561;37.974;23.708;2023-04-26T05:03:02;25.30;40.20
80250;DHT22;69561;37.974;23.708;2023-04-26T05:05:28;25.20;40.10
80250;DHT22;69561;37.974;23.708;2023-04-26T05:07:54;25.10;40.10
80250;DHT22;69561;37.974;23.708;2023-04-26T05:10:19;25.20;40.00
80250;DHT22;69561;37.974;23.708;2023-04-26T05:12:45;25.20;39.90
80250;DHT22;69561;37.974;23.708;2023-04-26T05:15:11;25.10;39.90
80250;DHT22;69561;37.974;23.708;2023-04-26T05:17:37;25.00;40.00
80250;DHT22;69561;37.974;23.708;2023-04-26T05:20:02;25.00;40.10
80250;DHT22;69561;37.974;23.708;2023-04-26T05:22:31;24.90;40.20
80250;DHT22;69561;37.974;23.708;2023-04-26T05:24:59;25.00;40.10
80250;DHT22;69561;37.974;23.708;2023-04-26T05:27:27;24.90;40.00
80250;DHT22;69561;37.974;23.708;2023-04-26T05:29:53;25.00;39.90
80250;DHT22;69561;37.974;23.708;2023-04-26T05:32:19;25.00;39.70
80250;DHT22;69561;37.974;23.708;2023-04-26T05:34:44;25.00;39.80
80250;DHT22;69561;37.974;23.708;2023-04-26T05:37:10;24.90;39.70
80250;DHT22;69561;37.974;23.708;2023-04-26T05:39:36;25.00;39.70
80250;DHT22;69561;37.974;23.708;2023-04-26T05:42:02;25.00;39.50
80250;DHT22;69561;37.974;23.708;2023-04-26T05:44:28;25.00;39.60
80250;DHT22;69561;37.974;23.708;2023-04-26T05:46:53;25.00;39.50
80250;DHT22;69561;37.974;23.708;2023-04-26T05:49:19;24.90;39.50
80250;DHT22;69561;37.974;23.708;2023-04-26T05:51:45;24.80;39.70
80250;DHT22;69561;37.974;23.708;2023-04-26T05:54:11;24.80;39.90
80250;DHT22;69561;37.974;23.708;2023-04-26T05:56:36;24.70;41.00
80250;DHT22;69561;37.974;23.708;2023-04-26T05:59:02;24.70;40.20
80250;DHT22;69561;37.974;23.708;2023-04-26T06:01:28;24.70;40.30
80250;DHT22;69561;37.974;23.708;2023-04-26T06:03:53;24.70;40.40
80250;DHT22;69561;37.974;23.708;2023-04-26T06:06:19;24.70;40.50
80250;DHT22;69561;37.974;23.708;2023-04-26T06:08:45;24.80;40.70
80250;DHT22;69561;37.974;23.708;2023-04-26T06:11:10;24.80;40.70
80250;DHT22;69561;37.974;23.708;2023-04-26T06:13:36;24.80;40.70
80250;DHT22;69561;37.974;23.708;2023-04-26T06:16:02;24.80;41.90
80250;DHT22;69561;37.974;23.708;2023-04-26T06:18:28;24.80;41.00
80250;DHT22;69561;37.974;23.708;2023-04-26T06:20:53;24.80;41.10
80250;DHT22;69561;37.974;23.708;2023-04-26T06:23:19;24.80;41.20
80250;DHT22;69561;37.974;23.708;2023-04-26T06:25:45;24.80;41.20
80250;DHT22;69561;37.974;23.708;2023-04-26T06:28:11;24.80;41.30
80250;DHT22;69561;37.974;23.708;2023-04-26T06:30:37;24.80;41.50
80250;DHT22;69561;37.974;23.708;2023-04-26T06:33:03;24.80;41.40
80250;DHT22;69561;37.974;23.708;2023-04-26T06:35:29;24.80;41.40
80250;DHT22;69561;37.974;23.708;2023-04-26T06:37:54;24.80;41.50
80250;DHT22;69561;37.974;23.708;2023-04-26T06:40:20;24.80;41.50
80250;DHT22;69561;37.974;23.708;2023-04-26T06:42:46;24.80;41.80
80250;DHT22;69561;37.974;23.708;2023-04-26T06:45:12;24.60;41.90
80250;DHT22;69561;37.974;23.708;2023-04-26T06:47:38;24.60;42.00
80250;DHT22;69561;37.974;23.708;2023-04-26T06:50:05;24.60;41.90
80250;DHT22;69561;37.974;23.708;2023-04-26T06:52:30;24.70;41.70
80250;DHT22;69561;37.974;23.708;2023-04-26T06:54:59;24.60;41.60
80250;DHT22;69561;37.974;23.708;2023-04-26T06:57:25;24.70;42.40
80250;DHT22;69561;37.974;23.708;2023-04-26T06:59:51;24.70;41.00
80250;DHT22;69561;37.974;23.708;2023-04-26T07:02:16;24.70;40.70
80250;DHT22;69561;37.974;23.708;2023-04-26T07:04:42;24.70;40.30
80250;DHT22;69561;37.974;23.708;2023-04-26T07:07:08;24.70;40.20
80250;DHT22;69561;37.974;23.708;2023-04-26T07:09:34;24.70;40.40
80250;DHT22;69561;37.974;23.708;2023-04-26T07:12:00;24.60;40.40
80250;DHT22;69561;37.974;23.708;2023-04-26T07:14:25;24.70;40.40
80250;DHT22;69561;37.974;23.708;2023-04-26T07:16:51;24.70;40.40
80250;DHT22;69561;37.974;23.708;2023-04-26T07:19:17;24.70;40.40
80250;DHT22;69561;37.974;23.708;2023-04-26T07:21:43;24.70;40.40
80250;DHT22;69561;37.974;23.708;2023-04-26T07:24:09;24.70;40.30
80250;DHT22;69561;37.974;23.708;2023-04-26T07:26:35;24.70;40.30
80250;DHT22;69561;37.974;23.708;2023-04-26T07:29:01;24.80;40.30
80250;DHT22;69561;37.974;23.708;2023-04-26T07:31:29;24.80;40.20
80250;DHT22;69561;37.974;23.708;2023-04-26T07:33:56;24.80;40.30
80250;DHT22;69561;37.974;23.708;2023-04-26T07:36:22;24.80;40.30
80250;DHT22;69561;37.974;23.708;2023-04-26T07:38:49;24.80;40.30
80250;DHT22;69561;37.974;23.708;2023-04-26T07:41:14;24.80;40.20
80250;DHT22;69561;37.974;23.708;2023-04-26T07:43:42;24.80;40.10
80250;DHT22;69561;37.974;23.708;2023-04-26T07:46:08;24.90;40.10
80250;DHT22;69561;37.974;23.708;2023-04-26T07:48:33;24.90;40.00
80250;DHT22;69561;37.974;23.708;2023-04-26T07:51:06;24.90;40.00
80250;DHT22;69561;37.974;23.708;2023-04-26T07:53:34;24.90;40.00
80250;DHT22;69561;37.974;23.708;2023-04-26T07:56:00;24.90;39.80
80250;DHT22;69561;37.974;23.708;2023-04-26T07:58:26;25.00;39.80
80250;DHT22;69561;37.974;23.708;2023-04-26T08:00:51;24.90;39.80
80250;DHT22;69561;37.974;23.708;2023-04-26T08:03:17;24.90;39.80
80250;DHT22;69561;37.974;23.708;2023-04-26T08:05:43;24.90;39.90
80250;DHT22;69561;37.974;23.708;2023-04-26T08:08:09;24.80;39.90
80250;DHT22;69561;37.974;23.708;2023-04-26T08:10:35;24.80;39.90
80250;DHT22;69561;37.974;23.708;2023-04-26T08:13:02;24.70;40.00
80250;DHT22;69561;37.974;23.708;2023-04-26T08:15:28;24.80;40.10
80250;DHT22;69561;37.974;23.708;2023-04-26T08:17:54;24.80;40.10
80250;DHT22;69561;37.974;23.708;2023-04-26T08:20:20;24.80;40.10
80250;DHT22;69561;37.974;23.708;2023-04-26T08:22:46;24.90;40.30
80250;DHT22;69561;37.974;23.708;2023-04-26T08:25:11;24.90;40.50
80250;DHT22;69561;37.974;23.708;2023-04-26T08:27:37;24.90;40.60
80250;DHT22;69561;37.974;23.708;2023-04-26T08:30:04;24.80;40.80
80250;DHT22;69561;37.974;23.708;2023-04-26T08:32:30;24.80;41.30
80250;DHT22;69561;37.974;23.708;2023-04-26T08:34:58;24.70;41.40
80250;DHT22;69561;37.974;23.708;2023-04-26T08:37:24;24.80;41.40
80250;DHT22;69561;37.974;23.708;2023-04-26T08:39:50;24.80;41.50
80250;DHT22;69561;37.974;23.708;2023-04-26T08:42:16;24.80;41.20
80250;DHT22;69561;37.974;23.708;2023-04-26T08:44:44;24.80;41.20
80250;DHT22;69561;37.974;23.708;2023-04-26T08:47:42;24.80;41.20
80250;DHT22;69561;37.974;23.708;2023-04-26T08:50:12;24.80;41.00
80250;DHT22;69561;37.974;23.708;2023-04-26T08:52:40;24.80;41.00
80250;DHT22;69561;37.974;23.708;2023-04-26T08:55:07;24.80;41.00
80250;DHT22;69561;37.974;23.708;2023-04-26T08:57:35;24.80;41.00
80250;DHT22;69561;37.974;23.708;2023-04-26T09:00:04;24.90;41.20
80250;DHT22;69561;37.974;23.708;2023-04-26T09:02:31;24.90;41.30
80250;DHT22;69561;37.974;23.708;2023-04-26T09:04:57;24.90;42.30
80250;DHT22;69561;37.974;23.708;2023-04-26T09:07:31;24.90;42.30
80250;DHT22;69561;37.974;23.708;2023-04-26T09:09:58;25.00;41.40
80250;DHT22;69561;37.974;23.708;2023-04-26T09:12:24;25.00;41.40
80250;DHT22;69561;37.974;23.708;2023-04-26T09:14:50;25.00;41.50
80250;DHT22;69561;37.974;23.708;2023-04-26T09:17:26;25.00;41.50
80250;DHT22;69561;37.974;23.708;2023-04-26T09:19:52;25.00;41.70
80250;DHT22;69561;37.974;23.708;2023-04-26T09:22:28;25.00;41.70
80250;DHT22;69561;37.974;23.708;2023-04-26T09:24:54;25.00;41.60
80250;DHT22;69561;37.974;23.708;2023-04-26T09:27:20;25.00;41.60
80250;DHT22;69561;37.974;23.708;2023-04-26T09:30:05;24.90;41.50
80250;DHT22;69561;37.974;23.708;2023-04-26T09:32:52;25.00;41.50
80250;DHT22;69561;37.974;23.708;2023-04-26T09:40:25;25.00;41.40
80250;DHT22;69561;37.974;23.708;2023-04-26T09:45:27;25.00;41.10
80250;DHT22;69561;37.974;23.708;2023-04-26T09:47:53;25.00;40.90
80250;DHT22;69561;37.974;23.708;2023-04-26T09:50:30;25.00;40.80
80250;DHT22;69561;37.974;23.708;2023-04-26T09:52:56;25.00;40.80
80250;DHT22;69561;37.974;23.708;2023-04-26T09:55:29;25.00;40.60
80250;DHT22;69561;37.974;23.708;2023-04-26T09:57:56;25.00;40.40
80250;DHT22;69561;37.974;23.708;2023-04-26T10:00:23;25.00;40.30
80250;DHT22;69561;37.974;23.708;2023-04-26T10:02:53;25.00;40.30
80250;DHT22;69561;37.974;23.708;2023-04-26T10:05:20;25.00;40.20
80250;DHT22;69561;37.974;23.708;2023-04-26T10:07:46;25.00;40.00
80250;DHT22;69561;37.974;23.708;2023-04-26T10:10:12;25.00;40.00
80250;DHT22;69561;37.974;23.708;2023-04-26T10:12:40;25.00;39.90
80250;DHT22;69561;37.974;23.708;2023-04-26T10:15:10;25.00;39.80
80250;DHT22;69561;37.974;23.708;2023-04-26T10:17:38;25.00;39.80
80250;DHT22;69561;37.974;23.708;2023-04-26T10:20:09;25.00;39.80
80250;DHT22;69561;37.974;23.708;2023-04-26T10:22:44;25.00;39.70
80250;DHT22;69561;37.974;23.708;2023-04-26T10:25:10;25.00;39.50
80250;DHT22;69561;37.974;23.708;2023-04-26T10:30:10;25.00;39.50
80250;DHT22;69561;37.974;23.708;2023-04-26T10:35:18;25.00;39.40
80250;DHT22;69561;37.974;23.708;2023-04-26T10:45:44;25.00;39.80
80250;DHT22;69561;37.974;23.708;2023-04-26T10:53:31;25.00;40.00
80250;DHT22;69561;37.974;23.708;2023-04-26T10:55:57;25.00;40.10
80250;DHT22;69561;37.974;23.708;2023-04-26T10:58:33;25.00;40.30
80250;DHT22;69561;37.974;23.708;2023-04-26T11:01:17;25.00;40.20
80250;DHT22;69561;37.974;23.708;2023-04-26T11:06:24;25.00;40.50
80250;DHT22;69561;37.974;23.708;2023-04-26T11:08:50;25.00;40.50
80250;DHT22;69561;37.974;23.708;2023-04-26T11:11:17;25.00;40.40
80250;DHT22;69561;37.974;23.708;2023-04-26T11:13:45;25.00;40.60
80250;DHT22;69561;37.974;23.708;2023-04-26T11:16:16;25.00;40.80
80250;DHT22;69561;37.974;23.708;2023-04-26T11:18:46;25.00;40.80
80250;DHT22;69561;37.974;23.708;2023-04-26T11:21:12;25.00;40.80
80250;DHT22;69561;37.974;23.708;2023-04-26T11:23:42;25.00;40.80
80250;DHT22;69561;37.974;23.708;2023-04-26T11:26:17;25.10;40.80
80250;DHT22;69561;37.974;23.708;2023-04-26T11:28:42;25.00;40.80
80250;DHT22;69561;37.974;23.708;2023-04-26T11:31:09;25.00;41.00
80250;DHT22;69561;37.974;23.708;2023-04-26T11:33:36;25.00;41.00
80250;DHT22;69561;37.974;23.708;2023-04-26T11:36:02;25.00;41.20
80250;DHT22;69561;37.974;23.708;2023-04-26T11:38:28;25.00;41.30
80250;DHT22;69561;37.974;23.708;2023-04-26T11:41:02;25.00;41.40
80250;DHT22;69561;37.974;23.708;2023-04-26T11:46:00;25.00;41.70
80250;DHT22;69561;37.974;23.708;2023-04-26T11:48:27;25.00;41.80
80250;DHT22;69561;37.974;23.708;2023-04-26T11:50:55;25.00;41.90
80250;DHT22;69561;37.974;23.708;2023-04-26T11:53:21;25.00;42.00
80250;DHT22;69561;37.974;23.708;2023-04-26T11:55:47;25.00;42.10
80250;DHT22;69561;37.974;23.708;2023-04-26T11:58:13;25.00;42.20
80250;DHT22;69561;37.974;23.708;2023-04-26T12:00:59;25.00;42.40
80250;DHT22;69561;37.974;23.708;2023-04-26T12:03:33;25.00;42.50
80250;DHT22;69561;37.974;23.708;2023-04-26T12:06:05;25.00;42.60
80250;DHT22;69561;37.974;23.708;2023-04-26T12:08:32;25.00;42.60
80250;DHT22;69561;37.974;23.708;2023-04-26T12:11:01;25.10;42.60
80250;DHT22;69561;37.974;23.708;2023-04-26T12:13:28;25.00;42.60
80250;DHT22;69561;37.974;23.708;2023-04-26T12:15:54;25.10;42.70
80250;DHT22;69561;37.974;23.708;2023-04-26T12:18:20;25.00;42.60
80250;DHT22;69561;37.974;23.708;2023-04-26T12:20:48;25.00;42.70
80250;DHT22;69561;37.974;23.708;2023-04-26T12:23:16;25.00;42.70
80250;DHT22;69561;37.974;23.708;2023-04-26T12:25:53;25.00;42.70
80250;DHT22;69561;37.974;23.708;2023-04-26T12:28:19;25.00;42.70
80250;DHT22;69561;37.974;23.708;2023-04-26T12:30:45;25.00;42.60
80250;DHT22;69561;37.974;23.708;2023-04-26T12:33:11;25.00;43.60
80250;DHT22;69561;37.974;23.708;2023-04-26T12:35:37;25.00;42.60
80250;DHT22;69561;37.974;23.708;2023-04-26T12:38:02;25.10;42.70
80250;DHT22;69561;37.974;23.708;2023-04-26T12:40:28;25.00;42.70
80250;DHT22;69561;37.974;23.708;2023-04-26T12:42:55;25.00;42.70
80250;DHT22;69561;37.974;23.708;2023-04-26T12:45:22;25.10;42.60
80250;DHT22;69561;37.974;23.708;2023-04-26T12:47:48;25.00;42.50
80250;DHT22;69561;37.974;23.708;2023-04-26T12:50:15;25.00;43.30
80250;DHT22;69561;37.974;23.708;2023-04-26T12:52:43;25.00;42.20
80250;DHT22;69561;37.974;23.708;2023-04-26T12:55:13;25.00;42.20
80250;DHT22;69561;37.974;23.708;2023-04-26T12:57:40;25.00;42.10
80250;DHT22;69561;37.974;23.708;2023-04-26T13:00:09;25.00;42.00
80250;DHT22;69561;37.974;23.708;2023-04-26T13:02:36;25.00;42.00
80250;DHT22;69561;37.974;23.708;2023-04-26T13:05:02;25.00;42.00
80250;DHT22;69561;37.974;23.708;2023-04-26T13:07:36;25.00;41.90
80250;DHT22;69561;37.974;23.708;2023-04-26T13:10:03;24.90;41.80
80250;DHT22;69561;37.974;23.708;2023-04-26T13:12:29;24.90;41.70
80250;DHT22;69561;37.974;23.708;2023-04-26T13:14:55;24.90;41.70
80250;DHT22;69561;37.974;23.708;2023-04-26T13:17:23;24.90;41.70
80250;DHT22;69561;37.974;23.708;2023-04-26T13:19:50;24.90;41.90
80250;DHT22;69561;37.974;23.708;2023-04-26T13:22:17;24.90;41.90
80250;DHT22;69561;37.974;23.708;2023-04-26T13:24:43;24.90;41.70
80250;DHT22;69561;37.974;23.708;2023-04-26T13:27:09;24.90;41.70
80250;DHT22;69561;37.974;23.708;2023-04-26T13:29:35;24.80;41.50
80250;DHT22;69561;37.974;23.708;2023-04-26T13:32:01;24.80;41.40
80250;DHT22;69561;37.974;23.708;2023-04-26T13:34:28;24.80;41.30
80250;DHT22;69561;37.974;23.708;2023-04-26T13:36:55;24.80;41.30
80250;DHT22;69561;37.974;23.708;2023-04-26T13:39:26;24.80;41.30
80250;DHT22;69561;37.974;23.708;2023-04-26T13:41:55;24.80;41.20
80250;DHT22;69561;37.974;23.708;2023-04-26T13:44:23;24.80;41.20
80250;DHT22;69561;37.974;23.708;2023-04-26T13:46:49;24.80;41.20
80250;DHT22;69561;37.974;23.708;2023-04-26T13:49:15;24.80;41.20
80250;DHT22;69561;37.974;23.708;2023-04-26T13:51:41;24.80;41.20
80250;DHT22;69561;37.974;23.708;2023-04-26T13:54:07;24.80;41.20
80250;DHT22;69561;37.974;23.708;2023-04-26T13:56:35;24.80;41.20
80250;DHT22;69561;37.974;23.708;2023-04-26T13:59:01;24.80;41.20
80250;DHT22;69561;37.974;23.708;2023-04-26T14:01:29;24.80;41.10
80250;DHT22;69561;37.974;23.708;2023-04-26T14:03:55;24.80;41.00
80250;DHT22;69561;37.974;23.708;2023-04-26T14:06:21;24.80;40.90
80250;DHT22;69561;37.974;23.708;2023-04-26T14:08:46;24.80;40.90
80250;DHT22;69561;37.974;23.708;2023-04-26T14:11:12;24.80;40.70
80250;DHT22;69561;37.974;23.708;2023-04-26T14:13:40;24.80;40.70
80250;DHT22;69561;37.974;23.708;2023-04-26T14:16:06;24.80;40.70
80250;DHT22;69561;37.974;23.708;2023-04-26T14:18:32;24.80;40.70
80250;DHT22;69561;37.974;23.708;2023-04-26T14:20:58;24.80;40.70
80250;DHT22;69561;37.974;23.708;2023-04-26T14:23:24;24.80;40.70
80250;DHT22;69561;37.974;23.708;2023-04-26T14:25:51;24.80;40.90
80250;DHT22;69561;37.974;23.708;2023-04-26T14:28:17;24.80;41.10
80250;DHT22;69561;37.974;23.708;2023-04-26T14:30:43;24.80;41.40
80250;DHT22;69561;37.974;23.708;2023-04-26T14:33:08;24.80;41.60
80250;DHT22;69561;37.974;23.708;2023-04-26T14:35:34;24.80;41.80
80250;DHT22;69561;37.974;23.708;2023-04-26T14:38:00;24.80;41.90
80250;DHT22;69561;37.974;23.708;2023-04-26T14:40:26;24.80;42.10
80250;DHT22;69561;37.974;23.708;2023-04-26T14:42:51;24.80;42.10
80250;DHT22;69561;37.974;23.708;2023-04-26T14:45:20;24.80;42.20
80250;DHT22;69561;37.974;23.708;2023-04-26T14:47:46;24.80;42.30
80250;DHT22;69561;37.974;23.708;2023-04-26T14:50:19;24.80;42.40
80250;DHT22;69561;37.974;23.708;2023-04-26T14:52:45;24.80;42.40
80250;DHT22;69561;37.974;23.708;2023-04-26T14:55:16;24.80;42.40
80250;DHT22;69561;37.974;23.708;2023-04-26T14:57:43;24.80;42.30
80250;DHT22;69561;37.974;23.708;2023-04-26T15:00:09;24.80;42.30
80250;DHT22;69561;37.974;23.708;2023-04-26T15:02:42;24.80;42.20
80250;DHT22;69561;37.974;23.708;2023-04-26T15:05:09;24.80;42.20
80250;DHT22;69561;37.974;23.708;2023-04-26T15:07:36;24.80;42.10
80250;DHT22;69561;37.974;23.708;2023-04-26T15:10:05;24.80;42.10
80250;DHT22;69561;37.974;23.708;2023-04-26T15:12:35;24.80;42.10
80250;DHT22;69561;37.974;23.708;2023-04-26T15:15:01;24.80;42.10
80250;DHT22;69561;37.974;23.708;2023-04-26T15:17:30;24.80;42.20
80250;DHT22;69561;37.974;23.708;2023-04-26T15:19:56;24.80;42.20
80250;DHT22;69561;37.974;23.708;2023-04-26T15:22:21;24.80;42.30
80250;DHT22;69561;37.974;23.708;2023-04-26T15:24:47;24.80;42.40
80250;DHT22;69561;37.974;23.708;2023-04-26T15:27:15;24.70;42.40
80250;DHT22;69561;37.974;23.708;2023-04-26T15:29:41;24.70;42.50
80250;DHT22;69561;37.974;23.708;2023-04-26T15:32:07;24.80;42.60
80250;DHT22;69561;37.974;23.708;2023-04-26T15:34:38;24.80;42.60
80250;DHT22;69561;37.974;23.708;2023-04-26T15:37:05;24.80;42.60
80250;DHT22;69561;37.974;23.708;2023-04-26T15:39:30;24.80;42.70
80250;DHT22;69561;37.974;23.708;2023-04-26T15:41:56;24.80;42.70
80250;DHT22;69561;37.974;23.708;2023-04-26T15:44:23;24.80;42.80